Time;durP1;ratioP1;P1;durP2;ratioP2;P2;SDS_P1;SDS_P2;PMS_P1;PMS_P2;Temp;Humidity;BMP_temperature;BMP_pressure;BME280_temperature;BME280_humidity;BME280_pressure;Samples;Min_cycle;Max_cycle;Signal;HPM_P1;HPM_P2
2022/04/17 00:01:36;;;;;;;2.75;0.80;;;6.10;44.40;;;;;;5116309;28;19903;-87
2022/04/17 00:04:02;;;;;;;4.50;0.88;;;6.10;44.10;;;;;;5116616;28;20039;-87
2022/04/17 00:06:27;;;;;;;;;;;6.10;43.70;;;;;;5115996;28;20392;-88
2022/04/17 00:08:53;;;;;;;4.45;0.70;;;6.20;43.20;;;;;;5116317;28;19916;-88
2022/04/17 00:11:19;;;;;;;1.40;0.63;;;6.10;43.90;;;;;;5116629;27;20028;-87
2022/04/17 00:13:44;;;;;;;;;;;6.00;44.00;;;;;;5115332;28;20027;-89
2022/04/17 00:16:11;;;;;;;4.88;0.73;;;6.00;43.80;;;;;;5115144;28;20428;-87
2022/04/17 00:18:37;;;;;;;1.55;0.60;;;6.10;43.10;;;;;;5115120;28;20476;-87
2022/04/17 00:21:03;;;;;;;2.28;0.68;;;6.00;43.00;;;;;;5115049;28;20026;-86
2022/04/17 00:23:29;;;;;;;1.92;0.85;;;6.10;43.00;;;;;;5115205;28;20038;-87
2022/04/17 00:25:55;;;;;;;1.52;0.60;;;6.00;43.30;;;;;;5114443;28;20024;-87
2022/04/17 00:28:21;;;;;;;2.15;0.88;;;5.90;43.50;;;;;;5114958;28;20043;-87
2022/04/17 00:30:48;;;;;;;1.88;0.95;;;5.90;43.30;;;;;;5114921;28;20492;-87
2022/04/17 00:33:13;;;;;;;1.70;0.60;;;5.80;43.10;;;;;;5114749;28;20046;-87
2022/04/17 00:35:41;;;;;;;4.95;0.65;;;5.90;42.50;;;;;;5114826;28;20114;-87
2022/04/17 00:38:07;;;;;;;2.10;0.70;;;5.90;42.50;;;;;;5116108;28;20506;-86
2022/04/17 00:40:32;;;;;;;1.65;0.60;;;5.90;43.40;;;;;;5114778;28;20019;-87
2022/04/17 00:42:59;;;;;;;1.80;0.60;;;5.80;43.50;;;;;;5114609;28;20042;-87
2022/04/17 00:45:26;;;;;;;1.98;0.60;;;5.90;43.30;;;;;;5114390;28;20016;-86
2022/04/17 00:47:51;;;;;;;1.67;0.68;;;5.80;44.60;;;;;;5114205;28;20029;-88
2022/04/17 00:50:18;;;;;;;1.75;0.77;;;5.80;43.50;;;;;;5114322;28;20048;-87
2022/04/17 00:52:45;;;;;;;1.70;0.82;;;5.70;43.90;;;;;;5114575;28;20419;-87
2022/04/17 00:55:12;;;;;;;2.45;0.90;;;5.70;44.40;;;;;;5114583;28;20038;-87
2022/04/17 00:57:38;;;;;;;3.13;1.17;;;5.70;44.10;;;;;;5114357;28;20055;-87
2022/04/17 01:00:05;;;;;;;;;;;5.50;44.50;;;;;;5114821;28;20028;-87
2022/04/17 01:02:31;;;;;;;2.45;0.88;;;5.50;45.50;;;;;;5114481;28;19942;-87
2022/04/17 01:04:56;;;;;;;;;;;5.30;45.80;;;;;;5114287;28;20035;-87
2022/04/17 01:07:23;;;;;;;3.60;0.80;;;5.40;45.90;;;;;;5112860;28;19903;-87
2022/04/17 01:09:53;;;;;;;1.98;0.73;;;5.30;44.80;;;;;;5113608;28;20035;-88
2022/04/17 01:12:19;;;;;;;4.90;1.08;;;5.40;44.70;;;;;;5113220;28;20027;-87
2022/04/17 01:14:44;;;;;;;2.40;0.90;;;5.40;45.60;;;;;;5115173;28;20026;-86
2022/04/17 01:17:12;;;;;;;1.13;0.70;;;5.40;45.90;;;;;;5114201;28;20042;-87
2022/04/17 01:19:39;;;;;;;1.55;0.70;;;5.30;46.10;;;;;;5114048;28;20024;-88
2022/04/17 01:22:07;;;;;;;2.03;0.77;;;5.30;46.10;;;;;;5113907;28;20031;-87
2022/04/17 01:27:19;;;;;;;1.50;0.77;;;5.20;46.60;;;;;;5115245;28;20031;-87
2022/04/17 01:29:46;;;;;;;2.45;1.30;;;5.20;46.00;;;;;;5113858;28;20035;-87
2022/04/17 01:32:12;;;;;;;2.38;0.85;;;5.20;46.30;;;;;;5113732;28;20442;-87
2022/04/17 01:34:38;;;;;;;2.58;0.90;;;5.10;46.30;;;;;;5114694;28;20541;-87
2022/04/17 01:37:04;;;;;;;;;;;5.20;46.60;;;;;;5113914;28;20031;-87
2022/04/17 01:39:31;;;;;;;2.47;0.85;;;5.40;45.10;;;;;;5113695;28;20372;-88
2022/04/17 01:41:58;;;;;;;1.90;0.70;;;5.40;45.80;;;;;;5113735;28;20027;-87
2022/04/17 01:44:28;;;;;;;2.65;0.90;;;5.30;45.90;;;;;;5113569;28;20404;-87
2022/04/17 01:46:54;;;;;;;1.88;0.77;;;5.40;45.60;;;;;;5113530;28;20028;-86
2022/04/17 01:49:20;;;;;;;2.17;1.02;;;5.40;46.00;;;;;;5113337;28;20052;-87
2022/04/17 01:51:46;;;;;;;;;;;5.50;45.80;;;;;;5113632;28;20023;-87
2022/04/17 01:54:14;;;;;;;8.00;1.10;;;5.60;45.40;;;;;;5113534;28;20437;-87
2022/04/17 01:56:40;;;;;;;1.67;1.00;;;5.40;45.80;;;;;;5113595;28;20027;-87
2022/04/17 01:59:07;;;;;;;2.17;0.70;;;5.40;47.10;;;;;;5113079;28;20394;-87
2022/04/17 02:01:37;;;;;;;1.83;1.02;;;5.40;46.20;;;;;;5114343;28;20065;-87
2022/04/17 02:04:04;;;;;;;2.00;0.77;;;5.30;46.20;;;;;;5113306;28;20031;-86
2022/04/17 02:06:30;;;;;;;3.97;0.90;;;5.30;46.80;;;;;;5112892;28;20034;-87
2022/04/17 02:08:56;;;;;;;4.20;0.80;;;5.20;46.90;;;;;;5113044;28;20388;-87
2022/04/17 02:11:24;;;;;;;2.55;1.35;;;5.20;46.90;;;;;;5114073;28;20027;-87
2022/04/17 02:13:50;;;;;;;2.40;0.70;;;5.10;47.40;;;;;;5114023;28;20100;-87
2022/04/17 02:16:20;;;;;;;8.65;1.70;;;5.00;47.50;;;;;;5112960;28;20031;-87
2022/04/17 02:18:49;;;;;;;3.13;1.10;;;4.90;47.90;;;;;;5114040;28;20121;-86
2022/04/17 02:21:16;;;;;;;3.15;0.98;;;4.90;48.30;;;;;;5112782;28;20024;-86
2022/04/17 02:23:43;;;;;;;2.25;0.73;;;4.80;48.60;;;;;;5112541;28;20020;-87
2022/04/17 02:26:10;;;;;;;2.47;0.60;;;4.80;48.70;;;;;;5113069;28;20024;-87
2022/04/17 02:28:37;;;;;;;1.60;0.70;;;4.70;49.30;;;;;;5112825;28;20023;-86
2022/04/17 02:31:04;;;;;;;1.95;0.63;;;4.70;49.40;;;;;;5112624;28;20548;-87
2022/04/17 02:33:31;;;;;;;3.17;0.80;;;4.80;49.20;;;;;;5112695;28;20399;-85
2022/04/17 02:35:57;;;;;;;2.05;0.82;;;5.10;48.30;;;;;;5112881;28;20028;-86
2022/04/17 02:38:22;;;;;;;;;;;5.20;48.20;;;;;;5113031;28;20110;-87
2022/04/17 02:40:48;;;;;;;4.35;0.88;;;5.30;47.40;;;;;;5113024;28;19958;-86
2022/04/17 02:43:14;;;;;;;;;;;5.40;46.70;;;;;;5113001;28;20517;-87
2022/04/17 02:45:40;;;;;;;2.80;0.90;;;5.50;47.60;;;;;;5112681;28;19903;-87
2022/04/17 02:48:05;;;;;;;;;;;5.40;46.50;;;;;;5112834;28;20035;-86
2022/04/17 02:50:31;;;;;;;1.90;0.80;;;5.50;46.40;;;;;;5112434;28;20391;-88
2022/04/17 02:52:57;;;;;;;;;;;5.50;46.50;;;;;;5112881;28;20024;-87
2022/04/17 02:55:22;;;;;;;1.48;0.82;;;5.30;47.00;;;;;;5112579;28;19904;-87
2022/04/17 02:57:48;;;;;;;;;;;5.20;47.10;;;;;;5114162;28;20072;-86
2022/04/17 03:00:15;;;;;;;2.13;1.00;;;5.20;47.80;;;;;;5112470;28;19908;-86
2022/04/17 03:05:39;;;;;;;1.90;0.77;;;5.20;47.20;;;;;;5113761;28;20031;-87
2022/04/17 03:08:15;;;;;;;2.70;1.23;;;5.20;47.60;;;;;;5112442;28;20024;-87
2022/04/17 03:10:43;;;;;;;1.52;0.80;;;5.10;47.70;;;;;;5112279;28;20057;-86
2022/04/17 03:13:10;;;;;;;5.15;0.75;;;5.00;47.80;;;;;;5112260;28;20024;-86
2022/04/17 03:15:38;;;;;;;2.22;0.90;;;4.90;48.20;;;;;;5112159;28;20035;-87
2022/04/17 03:18:05;;;;;;;2.03;0.93;;;5.00;47.90;;;;;;5112400;28;20499;-87
2022/04/17 03:20:31;;;;;;;6.50;0.90;;;5.00;47.70;;;;;;5112328;28;20069;-87
2022/04/17 03:22:57;;;;;;;1.75;0.90;;;5.00;48.10;;;;;;5112147;28;20073;-87
2022/04/17 03:25:23;;;;;;;2.25;0.68;;;4.90;48.70;;;;;;5112030;28;20084;-86
2022/04/17 03:27:49;;;;;;;3.17;0.77;;;4.70;49.10;;;;;;5111870;28;20023;-86
2022/04/17 03:30:18;;;;;;;;;;;4.70;49.70;;;;;;5112682;28;20036;-86
2022/04/17 03:32:45;;;;;;;3.55;0.80;;;4.50;50.30;;;;;;5111977;28;20010;-87
2022/04/17 03:35:12;;;;;;;2.15;0.60;;;4.40;50.60;;;;;;5113712;28;20077;-87
2022/04/17 03:37:38;;;;;;;2.85;0.93;;;4.30;51.10;;;;;;5114699;28;20027;-86
2022/04/17 03:40:04;;;;;;;2.65;0.73;;;4.10;51.80;;;;;;5117809;28;20057;-86
2022/04/17 03:42:30;;;;;;;2.63;0.80;;;4.10;52.10;;;;;;5115865;28;20035;-87
2022/04/17 03:44:56;;;;;;;2.05;0.77;;;4.00;52.30;;;;;;5115267;28;20015;-88
2022/04/17 03:47:22;;;;;;;2.35;0.80;;;4.00;52.90;;;;;;5115947;28;20024;-86
2022/04/17 03:49:47;;;;;;;;;;;4.00;53.30;;;;;;5116673;28;20055;-87
2022/04/17 03:52:13;;;;;;;3.72;0.73;;;4.00;52.30;;;;;;5115732;28;19908;-86
2022/04/17 03:54:39;;;;;;;2.83;0.70;;;4.00;51.90;;;;;;5115744;28;20039;-87
2022/04/17 03:57:04;;;;;;;4.15;1.00;;;4.10;51.40;;;;;;5115051;28;20024;-86
2022/04/17 03:59:31;;;;;;;3.53;0.75;;;4.20;51.70;;;;;;5115674;28;20483;-87
2022/04/17 04:01:58;;;;;;;6.72;2.28;;;4.20;52.00;;;;;;5116572;28;20095;-88
2022/04/17 04:04:23;;;;;;;5.30;2.47;;;4.20;52.30;;;;;;5115472;28;20037;-88
2022/04/17 04:06:50;;;;;;;2.20;0.93;;;4.20;52.50;;;;;;5115391;28;20024;-86
2022/04/17 04:09:16;;;;;;;2.47;0.90;;;4.10;52.40;;;;;;5116096;28;20045;-86
2022/04/17 04:11:43;;;;;;;1.90;1.00;;;4.20;51.50;;;;;;5115356;28;20024;-86
2022/04/17 04:14:10;;;;;;;5.28;1.85;;;4.30;50.70;;;;;;5115217;28;20034;-86
2022/04/17 04:16:36;;;;;;;2.70;0.82;;;4.40;50.70;;;;;;5115107;28;20023;-87
2022/04/17 04:19:02;;;;;;;2.40;1.17;;;4.50;50.00;;;;;;5114958;28;20039;-86
2022/04/17 04:21:28;;;;;;;1.73;0.68;;;4.50;50.30;;;;;;5116168;28;20034;-87
2022/04/17 04:23:55;;;;;;;1.17;0.70;;;4.60;49.50;;;;;;5115899;28;20027;-87
2022/04/17 04:26:20;;;;;;;5.97;1.00;;;4.70;49.30;;;;;;5114946;28;20031;-87
2022/04/17 04:28:46;;;;;;;5.15;0.80;;;4.80;49.50;;;;;;5114953;28;20024;-87
2022/04/17 04:31:13;;;;;;;;;;;4.80;49.60;;;;;;5115121;28;20036;-85
2022/04/17 04:33:40;;;;;;;2.97;0.87;;;4.80;49.50;;;;;;5115093;28;19904;-86
2022/04/17 04:36:10;;;;;;;1.52;0.73;;;5.00;48.70;;;;;;5114870;28;20016;-87
2022/04/17 04:38:37;;;;;;;2.05;0.80;;;5.50;47.70;;;;;;5115842;28;20016;-86
2022/04/17 04:41:03;;;;;;;1.42;0.60;;;5.90;46.90;;;;;;5114151;28;20122;-86
2022/04/17 04:43:29;;;;;;;2.22;1.00;;;6.30;45.50;;;;;;5114524;28;20543;-86
2022/04/17 04:46:07;;;;;;;3.15;1.15;;;6.70;44.70;;;;;;5114646;28;20066;-86
2022/04/17 04:51:28;;;;;;;1.50;0.60;;;7.30;43.70;;;;;;5116048;28;20037;-87
2022/04/17 04:53:55;;;;;;;2.80;0.90;;;7.80;42.80;;;;;;5114307;28;20024;-87
2022/04/17 04:56:21;;;;;;;1.40;0.65;;;8.40;40.80;;;;;;5114673;28;20032;-87
2022/04/17 04:58:47;;;;;;;;;;;8.70;40.00;;;;;;5114992;28;20015;-87
2022/04/17 05:01:13;;;;;;;3.47;0.70;;;8.60;39.80;;;;;;5114387;28;19913;-87
2022/04/17 05:03:41;;;;;;;2.03;0.80;;;8.60;39.50;;;;;;5114534;28;20325;-87
2022/04/17 05:06:07;;;;;;;2.13;0.90;;;8.90;39.10;;;;;;5114532;28;20081;-86
2022/04/17 05:08:34;;;;;;;1.73;0.70;;;9.20;38.90;;;;;;5114065;28;20035;-87
2022/04/17 05:10:59;;;;;;;2.05;1.10;;;9.70;37.90;;;;;;5115289;28;20020;-87
2022/04/17 05:13:25;;;;;;;2.38;0.82;;;9.90;37.00;;;;;;5115819;28;20049;-87
2022/04/17 05:15:52;;;;;;;5.70;1.00;;;10.40;36.00;;;;;;5116228;28;20061;-86
2022/04/17 05:18:17;;;;;;;1.85;0.75;;;10.50;35.60;;;;;;5117878;28;20016;-87
2022/04/17 05:20:43;;;;;;;3.05;0.93;;;10.40;35.60;;;;;;5116713;28;20019;-86
2022/04/17 05:23:22;;;;;;;3.30;1.00;;;10.50;35.40;;;;;;5118370;28;20560;-86
2022/04/17 05:25:51;;;;;;;2.55;0.85;;;10.20;36.10;;;;;;5119155;28;20030;-87
2022/04/17 05:28:17;;;;;;;1.85;0.80;;;10.30;35.90;;;;;;5117628;28;20540;-88
2022/04/17 05:30:42;;;;;;;;;;;10.80;35.30;;;;;;5118112;28;20027;-87
2022/04/17 05:33:08;;;;;;;1.08;0.57;;;11.10;34.50;;;;;;5114103;28;19910;-87
2022/04/17 05:35:34;;;;;;;4.70;0.68;;;11.00;34.60;;;;;;5114115;28;20020;-86
2022/04/17 05:38:00;;;;;;;;;;;11.00;34.90;;;;;;5115061;28;20035;-88
2022/04/17 05:40:26;;;;;;;2.75;1.05;;;11.00;35.60;;;;;;5114425;28;19903;-88
2022/04/17 05:42:51;;;;;;;;;;;11.20;35.00;;;;;;5113762;28;20068;-88
2022/04/17 05:45:18;;;;;;;2.15;0.98;;;11.30;34.10;;;;;;5113594;28;19904;-87
2022/04/17 05:47:44;;;;;;;1.67;0.70;;;11.60;34.10;;;;;;5113711;28;20027;-86
2022/04/17 05:50:10;;;;;;;;;;;11.90;33.80;;;;;;5113589;28;20062;-87
2022/04/17 05:52:36;;;;;;;1.38;0.70;;;12.10;32.60;;;;;;5113429;28;19904;-87
2022/04/17 05:55:01;;;;;;;;;;;12.50;32.30;;;;;;5114634;28;20032;-88
2022/04/17 05:57:27;;;;;;;1.77;0.77;;;12.30;33.00;;;;;;5113134;28;20002;-87
2022/04/17 05:59:52;;;;;;;6.90;0.90;;;12.40;33.10;;;;;;5112731;28;20411;-89
2022/04/17 06:02:18;;;;;;;;;;;12.60;32.40;;;;;;5114629;28;20030;-88
2022/04/17 06:04:44;;;;;;;3.83;0.77;;;12.90;31.50;;;;;;5113206;28;20391;-88
2022/04/17 06:07:10;;;;;;;1.15;0.50;;;13.00;31.20;;;;;;5112589;28;20020;-87
2022/04/17 06:09:36;;;;;;;;;;;13.00;32.20;;;;;;5112364;28;20038;-86
2022/04/17 06:12:02;;;;;;;1.65;0.70;;;13.20;31.70;;;;;;5112785;28;19929;-86
2022/04/17 06:14:28;;;;;;;2.67;0.75;;;13.50;30.90;;;;;;5113044;28;20016;-86
2022/04/17 06:16:54;;;;;;;2.72;0.80;;;14.10;30.10;;;;;;5114318;28;20085;-87
2022/04/17 06:19:19;;;;;;;1.38;0.50;;;14.40;30.00;;;;;;5113865;28;20031;-86
2022/04/17 06:21:45;;;;;;;2.90;0.85;;;14.50;29.30;;;;;;5112604;28;20028;-85
2022/04/17 06:24:11;;;;;;;2.45;0.65;;;15.30;27.70;;;;;;5112668;28;20031;-86
2022/04/17 06:26:36;;;;;;;;;;;15.00;28.00;;;;;;5113160;28;20028;-87
2022/04/17 06:29:08;;;;;;;2.15;0.75;;;14.60;28.20;;;;;;5113253;28;20067;-86
2022/04/17 06:31:34;;;;;;;3.45;1.02;;;14.60;28.40;;;;;;5112742;28;20047;-86
2022/04/17 06:34:01;;;;;;;0.80;0.50;;;14.70;28.50;;;;;;5114063;27;20117;-86
2022/04/17 06:36:27;;;;;;;2.58;0.73;;;15.20;27.70;;;;;;5112724;28;20023;-85
2022/04/17 06:38:52;;;;;;;;;;;14.90;27.30;;;;;;5112869;28;20123;-85
2022/04/17 06:41:18;;;;;;;2.50;0.95;;;14.60;27.30;;;;;;5113713;28;19904;-86
2022/04/17 06:43:43;;;;;;;2.15;0.40;;;14.20;28.50;;;;;;5112417;28;20485;-86
2022/04/17 06:46:09;;;;;;;;;;;14.50;27.50;;;;;;5113983;28;20110;-86
2022/04/17 06:48:34;;;;;;;1.35;0.68;;;14.00;28.00;;;;;;5112538;28;20077;-86
2022/04/17 06:51:00;;;;;;;;;;;14.00;28.70;;;;;;5112649;28;20031;-86
2022/04/17 06:53:26;;;;;;;5.38;3.53;;;14.20;28.50;;;;;;5113622;28;19904;-86
2022/04/17 06:55:52;;;;;;;;;;;13.50;28.90;;;;;;5113101;28;20111;-87
2022/04/17 06:58:19;;;;;;;5.18;3.28;;;13.90;29.00;;;;;;5112471;28;19950;-86
2022/04/17 07:00:46;;;;;;;2.85;1.27;;;14.50;27.60;;;;;;5113455;28;20035;-84
2022/04/17 07:03:14;;;;;;;3.75;1.90;;;14.40;27.70;;;;;;5112406;28;20016;-86
2022/04/17 07:05:40;;;;;;;1.88;0.60;;;14.50;28.10;;;;;;5112231;28;20019;-85
2022/04/17 07:08:06;;;;;;;3.30;1.00;;;14.40;27.90;;;;;;5112614;28;20609;-86
2022/04/17 07:10:37;;;;;;;6.88;0.93;;;14.50;27.90;;;;;;5113551;28;20080;-86
2022/04/17 07:13:06;;;;;;;2.10;0.95;;;14.80;27.90;;;;;;5116081;28;20075;-85
2022/04/17 07:15:32;;;;;;;4.05;1.90;;;14.30;28.30;;;;;;5116711;28;20093;-86
2022/04/17 07:17:58;;;;;;;;;;;14.30;28.70;;;;;;5116957;28;20024;-86
2022/04/17 07:20:24;;;;;;;3.03;0.50;;;15.40;27.20;;;;;;5115920;28;19923;-86
2022/04/17 07:22:51;;;;;;;2.05;0.77;;;15.30;27.50;;;;;;5116198;28;20027;-86
2022/04/17 07:25:17;;;;;;;1.48;0.70;;;15.30;26.90;;;;;;5117085;28;20024;-86
2022/04/17 07:27:45;;;;;;;2.13;0.90;;;15.10;27.70;;;;;;5115384;28;20028;-86
2022/04/17 07:30:15;;;;;;;1.15;0.57;;;14.80;28.40;;;;;;5116031;28;20479;-87
2022/04/17 07:32:49;;;;;;;1.92;0.50;;;14.90;28.00;;;;;;5117027;28;20085;-86
2022/04/17 07:35:16;;;;;;;4.30;0.80;;;14.90;27.40;;;;;;5117141;28;20102;-85
2022/04/17 07:37:50;;;;;;;1.75;0.80;;;13.90;28.20;;;;;;5116894;28;20012;-86
2022/04/17 07:40:19;;;;;;;2.83;1.30;;;13.20;29.00;;;;;;5115723;28;20023;-85
2022/04/17 07:42:46;;;;;;;2.92;0.90;;;12.90;30.10;;;;;;5115888;28;20035;-87
2022/04/17 07:45:13;;;;;;;1.55;0.63;;;13.40;30.10;;;;;;5115744;28;20024;-86
2022/04/17 07:47:39;;;;;;;3.13;1.13;;;13.70;29.20;;;;;;5115892;28;20118;-85
2022/04/17 07:50:09;;;;;;;1.55;0.65;;;14.20;29.00;;;;;;5115487;28;20055;-85
2022/04/17 07:52:35;;;;;;;4.28;1.67;;;14.50;27.40;;;;;;5116604;28;20027;-85
2022/04/17 07:55:02;;;;;;;7.72;0.70;;;13.70;29.00;;;;;;5116298;28;20028;-86
2022/04/17 07:57:28;;;;;;;5.63;0.73;;;14.00;29.30;;;;;;5116716;28;20045;-86
2022/04/17 07:59:55;;;;;;;;;;;14.50;28.70;;;;;;5116146;28;20118;-86
2022/04/17 08:02:28;;;;;;;2.00;0.73;;;15.20;27.70;;;;;;5115418;28;19911;-85
2022/04/17 08:04:55;;;;;;;2.05;0.77;;;15.40;27.10;;;;;;5115364;28;20036;-84
2022/04/17 08:07:21;;;;;;;1.45;0.68;;;15.50;26.90;;;;;;5115516;28;20388;-86
2022/04/17 08:09:47;;;;;;;3.35;0.85;;;14.90;27.70;;;;;;5115270;28;20028;-86
2022/04/17 08:12:13;;;;;;;;;;;14.40;28.20;;;;;;5117529;28;20062;-86
2022/04/17 08:14:39;;;;;;;1.63;0.70;;;14.50;28.50;;;;;;5116415;28;19904;-87
2022/04/17 08:17:04;;;;;;;;;;;15.40;27.40;;;;;;5115644;28;20020;-87
2022/04/17 08:19:32;;;;;;;2.70;1.10;;;16.20;26.20;;;;;;5115101;28;19965;-87
2022/04/17 08:21:58;;;;;;;1.52;0.65;;;15.90;26.70;;;;;;5114298;28;20074;-85
2022/04/17 08:24:24;;;;;;;1.13;0.40;;;15.20;27.20;;;;;;5115032;28;20080;-85
2022/04/17 08:26:50;;;;;;;;;;;14.60;27.30;;;;;;5115176;28;20388;-86
2022/04/17 08:29:17;;;;;;;1.33;0.70;;;14.30;28.30;;;;;;5114593;28;20332;-85
2022/04/17 08:31:43;;;;;;;2.72;0.55;;;14.90;28.40;;;;;;5114823;28;20019;-85
2022/04/17 08:34:08;;;;;;;;;;;16.10;27.20;;;;;;5115448;28;20030;-86
2022/04/17 08:36:34;;;;;;;1.60;0.70;;;16.80;26.10;;;;;;5114537;28;19908;-87
2022/04/17 08:38:59;;;;;;;;;;;17.00;24.80;;;;;;5114851;28;20027;-86
2022/04/17 08:41:27;;;;;;;1.70;0.80;;;16.30;25.30;;;;;;5115404;28;19903;-86
2022/04/17 08:43:52;;;;;;;1.70;0.60;;;16.10;25.80;;;;;;5114614;28;20019;-86
2022/04/17 08:46:18;;;;;;;;;;;15.90;26.00;;;;;;5115150;28;20027;-87
2022/04/17 08:48:44;;;;;;;1.77;0.80;;;16.00;27.40;;;;;;5115857;28;19920;-87
2022/04/17 08:51:10;;;;;;;1.75;0.65;;;16.40;26.20;;;;;;5115446;28;20027;-86
2022/04/17 08:53:36;;;;;;;2.22;0.70;;;16.70;25.80;;;;;;5114595;28;20475;-87
2022/04/17 08:56:02;;;;;;;0.90;0.60;;;17.00;25.40;;;;;;5113876;28;20048;-86
2022/04/17 08:58:28;;;;;;;1.33;0.75;;;16.90;25.20;;;;;;5113846;28;20098;-86
2022/04/17 09:00:54;;;;;;;3.00;0.70;;;16.50;25.00;;;;;;5113860;28;20031;-85
2022/04/17 09:03:19;;;;;;;1.33;0.57;;;15.50;25.40;;;;;;5114091;28;20498;-85
2022/04/17 09:05:47;;;;;;;1.30;0.50;;;14.90;26.30;;;;;;5114231;28;20035;-85
2022/04/17 09:08:17;;;;;;;1.00;0.55;;;14.00;27.20;;;;;;5114243;28;20024;-85
2022/04/17 09:10:58;;;;;;;1.20;0.50;;;13.00;28.00;;;;;;5113780;28;20104;-84
2022/04/17 09:13:33;;;;;;;1.33;0.60;;;12.90;28.40;;;;;;5114973;28;20044;-85
2022/04/17 09:16:03;;;;;;;1.80;0.80;;;12.80;29.20;;;;;;5113983;28;20491;-86
2022/04/17 09:18:31;;;;;;;2.97;0.80;;;13.20;29.40;;;;;;5113672;28;20502;-85
2022/04/17 09:20:58;;;;;;;1.40;0.70;;;13.40;29.90;;;;;;5113678;28;20118;-85
2022/04/17 09:23:40;;;;;;;2.45;1.23;;;13.20;29.80;;;;;;5114010;28;20030;-85
2022/04/17 09:26:07;;;;;;;1.30;0.50;;;12.60;29.50;;;;;;5113544;28;20024;-86
2022/04/17 09:28:35;;;;;;;3.25;1.42;;;12.40;29.90;;;;;;5113439;28;20080;-85
2022/04/17 09:31:01;;;;;;;2.53;0.90;;;12.60;30.60;;;;;;5114355;28;20027;-85
2022/04/17 09:33:38;;;;;;;2.20;0.80;;;12.60;30.50;;;;;;5112351;28;20430;-85
2022/04/17 09:36:05;;;;;;;1.27;0.60;;;12.10;30.70;;;;;;5113699;28;20036;-85
2022/04/17 09:38:33;;;;;;;2.50;0.85;;;12.20;31.40;;;;;;5114529;28;20015;-84
2022/04/17 09:41:10;;;;;;;1.33;0.60;;;12.00;30.50;;;;;;5114907;28;20027;-85
2022/04/17 09:43:36;;;;;;;2.47;0.90;;;11.80;31.00;;;;;;5114288;28;20024;-85
2022/04/17 09:46:04;;;;;;;3.92;0.80;;;11.80;31.60;;;;;;5114340;28;20051;-85
2022/04/17 09:48:41;;;;;;;0.93;0.60;;;12.60;29.90;;;;;;5112852;28;20040;-86
2022/04/17 09:51:23;;;;;;;1.30;0.60;;;13.60;30.10;;;;;;5113233;28;20038;-86
2022/04/17 09:54:05;;;;;;;3.72;0.65;;;14.10;28.40;;;;;;5113184;28;20016;-86
2022/04/17 09:56:36;;;;;;;4.57;0.80;;;14.10;28.50;;;;;;5113078;28;20035;-85
2022/04/17 09:59:16;;;;;;;1.80;0.60;;;14.30;28.30;;;;;;5113282;28;20130;-85
2022/04/17 10:01:44;;;;;;;4.57;0.70;;;14.20;28.10;;;;;;5112958;28;20035;-86
2022/04/17 10:04:11;;;;;;;1.55;0.80;;;14.60;27.70;;;;;;5114312;28;20012;-85
2022/04/17 10:06:38;;;;;;;1.50;0.63;;;15.00;26.50;;;;;;5112711;28;20030;-84
2022/04/17 10:09:04;;;;;;;3.20;1.00;;;15.20;26.40;;;;;;5113828;28;20030;-85
2022/04/17 10:11:31;;;;;;;2.42;0.85;;;15.70;26.00;;;;;;5114014;28;20024;-86
2022/04/17 10:13:59;;;;;;;10.48;5.13;;;15.60;25.70;;;;;;5113621;28;20028;-85
2022/04/17 10:16:25;;;;;;;3.45;2.20;;;15.30;26.10;;;;;;5112957;28;20036;-85
2022/04/17 10:18:51;;;;;;;2.05;0.88;;;14.60;27.00;;;;;;5113711;28;20054;-85
2022/04/17 10:21:21;;;;;;;;;;;14.10;29.40;;;;;;5113420;28;20027;-85
2022/04/17 10:23:49;;;;;;;1.88;0.55;;;14.10;27.70;;;;;;5112976;28;20282;-84
2022/04/17 10:26:17;;;;;;;1.80;0.80;;;14.10;27.90;;;;;;5112299;28;20031;-85
2022/04/17 10:28:52;;;;;;;1.88;0.70;;;14.30;27.30;;;;;;5112495;28;20020;-86
2022/04/17 10:31:22;;;;;;;1.67;0.60;;;14.50;28.40;;;;;;5112539;28;20479;-84
2022/04/17 10:34:06;;;;;;;1.83;0.73;;;14.30;27.90;;;;;;5113720;28;20640;-85
2022/04/17 10:37:02;;;;;;;1.30;0.80;;;13.90;27.90;;;;;;5113711;28;20024;-85
2022/04/17 10:39:42;;;;;;;4.05;1.23;;;13.70;28.80;;;;;;5112487;28;20062;-86
2022/04/17 10:42:08;;;;;;;2.47;1.10;;;13.80;28.70;;;;;;5113625;28;20031;-85
2022/04/17 10:44:39;;;;;;;3.05;1.30;;;14.10;28.40;;;;;;5112098;28;20316;-86
2022/04/17 10:47:05;;;;;;;2.30;0.70;;;13.80;28.40;;;;;;5113692;28;20108;-85
2022/04/17 10:49:32;;;;;;;3.25;1.15;;;13.50;28.40;;;;;;5112150;28;20527;-84
2022/04/17 10:52:01;;;;;;;2.20;1.23;;;13.60;29.40;;;;;;5113679;28;20093;-84
2022/04/17 10:54:48;;;;;;;1.40;0.60;;;13.60;28.40;;;;;;5112292;28;20019;-86
2022/04/17 10:57:13;;;;;;;1.70;0.95;;;13.40;28.70;;;;;;5113350;28;20019;-85
2022/04/17 10:59:45;;;;;;;;;;;13.50;29.80;;;;;;5112523;28;20036;-85
2022/04/17 11:02:16;;;;;;;1.77;0.70;;;13.50;28.90;;;;;;5113548;28;19907;-84
2022/04/17 11:04:55;;;;;;;2.67;0.80;;;13.60;27.30;;;;;;5112300;28;20065;-85
2022/04/17 11:07:30;;;;;;;1.92;0.77;;;13.20;28.40;;;;;;5111814;28;20020;-84
2022/04/17 11:10:25;;;;;;;1.23;0.55;;;13.40;29.80;;;;;;5109592;28;20411;-85
2022/04/17 11:12:53;;;;;;;1.65;0.80;;;13.60;28.20;;;;;;5113033;28;20019;-85
2022/04/17 11:15:19;;;;;;;2.08;0.70;;;13.70;27.60;;;;;;5112038;28;20030;-86
2022/04/17 11:17:46;;;;;;;;;;;13.60;27.40;;;;;;5113623;28;20036;-85
2022/04/17 11:20:13;;;;;;;1.40;0.55;;;13.40;28.20;;;;;;5111719;28;19903;-83
2022/04/17 11:22:39;;;;;;;1.80;0.82;;;13.30;28.50;;;;;;5112173;28;20477;-84
2022/04/17 11:25:08;;;;;;;;;;;13.40;29.90;;;;;;5112088;28;20027;-85
2022/04/17 11:27:46;;;;;;;1.50;0.70;;;13.60;29.00;;;;;;5112131;28;19926;-84
2022/04/17 11:30:17;;;;;;;5.38;1.92;;;13.70;29.30;;;;;;5112021;28;20035;-86
2022/04/17 11:32:43;;;;;;;2.88;1.35;;;13.60;30.00;;;;;;5111898;28;20031;-84
2022/04/17 11:35:14;;;;;;;;;;;13.60;29.00;;;;;;5112381;28;20484;-85
2022/04/17 11:37:45;;;;;;;1.88;0.82;;;13.10;29.40;;;;;;5112130;28;20459;-86
2022/04/17 11:40:13;;;;;;;2.00;0.60;;;12.90;29.70;;;;;;5111784;28;20068;-84
2022/04/17 11:42:45;;;;;;;2.67;0.55;;;13.00;28.90;;;;;;5113070;28;20031;-85
2022/04/17 11:45:13;;;;;;;1.52;0.57;;;13.20;27.60;;;;;;5111761;28;20028;-85
2022/04/17 11:47:40;;;;;;;1.38;0.70;;;13.40;27.20;;;;;;5112692;28;20024;-85
2022/04/17 11:50:09;;;;;;;2.25;0.80;;;13.30;27.00;;;;;;5112464;28;20052;-85
2022/04/17 11:52:35;;;;;;;2.08;0.60;;;13.40;27.40;;;;;;5112036;28;20020;-85
2022/04/17 11:55:00;;;;;;;;;;;13.40;27.40;;;;;;5113643;28;20560;-85
2022/04/17 11:57:26;;;;;;;1.33;0.70;;;13.30;28.60;;;;;;5115934;28;19950;-86
2022/04/17 11:59:54;;;;;;;;;;;13.10;28.10;;;;;;5115898;28;20025;-85
2022/04/17 12:02:21;;;;;;;1.23;0.50;;;13.10;28.70;;;;;;5115277;28;19904;-85
2022/04/17 12:04:48;;;;;;;0.95;0.60;;;13.00;28.50;;;;;;5115387;28;20488;-86
2022/04/17 12:07:21;;;;;;;6.00;1.60;;;12.70;28.40;;;;;;5115493;28;20030;-86
2022/04/17 12:09:47;;;;;;;3.30;1.60;;;12.80;28.70;;;;;;5115220;28;20039;-84
2022/04/17 12:12:15;;;;;;;2.10;1.00;;;12.70;28.60;;;;;;5115305;28;20480;-85
2022/04/17 12:14:42;;;;;;;1.33;0.50;;;12.60;28.20;;;;;;5115540;28;20039;-85
2022/04/17 12:17:08;;;;;;;3.03;1.25;;;12.50;29.10;;;;;;5115224;28;20058;-87
2022/04/17 12:19:34;;;;;;;2.35;0.90;;;12.50;29.20;;;;;;5115039;28;20034;-85
2022/04/17 12:22:12;;;;;;;;;;;12.40;28.00;;;;;;5115425;28;20028;-85
2022/04/17 12:24:43;;;;;;;1.73;0.82;;;12.50;27.70;;;;;;5116049;28;19927;-85
2022/04/17 12:27:09;;;;;;;2.17;0.60;;;12.50;29.20;;;;;;5115057;28;20022;-85
2022/04/17 12:29:38;;;;;;;1.45;0.77;;;12.70;28.40;;;;;;5115937;28;20050;-85
2022/04/17 12:32:13;;;;;;;2.00;0.75;;;12.70;28.10;;;;;;5114900;28;20019;-84
2022/04/17 12:34:39;;;;;;;2.03;0.60;;;13.00;27.80;;;;;;5114901;28;20033;-86
2022/04/17 12:37:41;;;;;;;2.33;0.68;;;13.10;28.30;;;;;;5114183;28;20031;-85
2022/04/17 12:40:08;;;;;;;4.57;0.80;;;13.10;28.70;;;;;;5056425;28;20093;-86
2022/04/17 12:42:33;;;;;;;2.65;1.20;;;13.00;28.30;;;;;;5102480;28;20035;-85
2022/04/17 12:44:59;;;;;;;;;;;12.80;29.60;;;;;;5114785;28;20024;-86
2022/04/17 12:47:25;;;;;;;4.32;1.35;;;12.60;29.10;;;;;;5115705;28;19918;-86
2022/04/17 12:49:57;;;;;;;;;;;12.50;28.70;;;;;;5114553;28;20051;-86
2022/04/17 12:52:23;;;;;;;2.42;1.05;;;12.50;30.00;;;;;;5115504;28;19903;-86
2022/04/17 12:54:49;;;;;;;;;;;12.60;29.40;;;;;;5116008;28;20024;-85
2022/04/17 12:57:20;;;;;;;2.35;0.82;;;12.70;29.10;;;;;;5115465;28;19995;-85
2022/04/17 12:59:51;;;;;;;1.20;0.50;;;12.80;28.50;;;;;;5114360;28;20027;-84
2022/04/17 13:02:22;;;;;;;1.20;0.50;;;12.90;27.90;;;;;;5115392;28;20027;-85
2022/04/17 13:04:51;;;;;;;2.10;0.55;;;13.00;27.90;;;;;;5115495;28;20024;-83
2022/04/17 13:07:17;;;;;;;2.63;0.68;;;13.10;28.20;;;;;;5114389;28;20058;-85
2022/04/17 13:09:52;;;;;;;;;;;13.20;28.30;;;;;;5115691;28;20055;-86
2022/04/17 13:12:31;;;;;;;4.07;1.85;;;13.30;28.20;;;;;;5115168;28;19911;-86
2022/04/17 13:14:58;;;;;;;6.38;2.72;;;13.60;28.40;;;;;;5115111;28;20475;-86